Allerte
Precipitazioni in corso 

Nessun fenomeno

Allerta Gelo (░C)  

Nessuna

Allerta Vento (km/h)  

Nessuna

Scarsa VisibilitÓ (m) 

Nessuna

Allerta Caldo (░C)  

Nessuna

Allerta Afa (░C-UR)  

Nessuna

Dati e Grafici Climatici 3-7 gg
L'OMTeA propone un elaborazione dei più importanti parametri meteorologici rilevati dalle stazioni che hanno aderito al progetto di monitoraggio. In questa sezione è possibile consultare i dati provenienti dalle centraline, interpretati attraverso output testuale e grafico.
Se vuoi aderire alla rete OMTeA vai alla pagina Info e leggi requisiti e vantaggi.

Stazione di Cefal¨ - www.meteocefalu.altervista.org

Valori rilevati il 14/09/2019 alle ore 00:29

Temperatura atmosferica: 22.8 °C
Pressione atmosferica: 1020.7 mbar
Umidità relativa: 77 %

Altitudine: 20 metri s.l.m.
Latitudine: 38.02° N
Longitudine: 14.01° E



Entra nella rete OMTeA!. Potrai liberamente usare sul tuo sito questi grafici; info alla pagina Istruzioni.

Ultime 50 rilevazioni
Orario Temp
°C
Rugiada
°C
Prec.
mm
Press.
mbar
Umidità
%
Int. vento
km/h
Dir.
vento
00:29 - 14/09 22.8 18.5 0 1020.70 77 0 --
00:14 - 14/09 22.6 18.4 0 1020.60 77 0.8 N
23:59 - 13/09 22.4 18.2 0 1020.70 77 0 --
23:44 - 13/09 22.3 18.1 0 1021.00 77 0 --
23:29 - 13/09 22.4 18.2 0 1021.10 77 0 --
23:14 - 13/09 22.6 18.4 0 1021.20 77 0 --
22:59 - 13/09 22.4 18.2 0 1021.10 77 0 --
22:44 - 13/09 22.5 18.3 0 1021.30 77 0.9 NNE
22:29 - 13/09 22.7 18.5 0 1021.20 77 0 --
22:14 - 13/09 22.8 18.5 0 1021.20 77 0 --
21:59 - 13/09 22.8 18.5 0 1021.10 77 0 --
21:44 - 13/09 22.9 18.6 0 1021.00 77 0.7 N
21:29 - 13/09 23.0 18.7 0 1020.80 77 0 --
21:14 - 13/09 23.2 18.7 0 1020.70 76 0 --
20:59 - 13/09 23.3 18.8 0 1020.70 76 0 --
20:44 - 13/09 23.3 18.8 0 1020.30 76 0 --
20:29 - 13/09 23.4 18.9 0 1020.10 76 0 --
20:14 - 13/09 23.5 18.8 0 1020.30 75 0 --
19:59 - 13/09 23.6 18.9 0 1020.30 75 0 --
19:44 - 13/09 23.9 19.2 0 1020.10 75 0 --
19:29 - 13/09 24.2 19.5 0 1020.00 75 0 --
19:14 - 13/09 24.4 19.7 0 1019.80 75 0 --
18:59 - 13/09 24.9 19.9 0 1019.90 74 0 --
18:44 - 13/09 25.1 20.1 0 1019.90 74 2.2 E
18:29 - 13/09 25.3 20.3 0 1020.00 74 1.3 NE
18:14 - 13/09 25.4 20.4 0 1020.10 74 1.6 E
17:59 - 13/09 25.6 20.4 0 1020.30 73 3.1 NE
17:44 - 13/09 25.8 20.6 0 1020.20 73 1.5 ENE
17:29 - 13/09 25.9 20.7 0 1020.20 73 2.7 NE
17:14 - 13/09 26.1 20.6 0 1020.10 72 1.3 ENE
16:59 - 13/09 26.1 20.6 0 1020.00 72 2.3 ENE
16:44 - 13/09 26.2 20.7 0 1020.10 72 2.1 ENE
16:29 - 13/09 26.2 20.7 0 1020.00 72 3.8 ENE
16:14 - 13/09 26.2 20.7 0 1020.00 72 3.0 ENE
15:59 - 13/09 26.5 21.0 0 1020.10 72 4.7 ENE
15:44 - 13/09 26.1 20.6 0 1020.10 72 5.0 ENE
15:29 - 13/09 25.8 20.4 0 1020.30 72 5.7 NNE
15:14 - 13/09 26.1 20.6 0 1020.40 72 3.0 ENE
14:59 - 13/09 26.1 20.6 0 1020.50 72 2.5 ENE
14:44 - 13/09 26.1 20.4 0 1020.50 71 2.4 ENE
14:29 - 13/09 26.1 20.4 0 1020.60 71 0.8 ENE
14:14 - 13/09 25.9 20.5 0 1020.60 72 3.7 NNE
13:59 - 13/09 25.9 20.5 0 1020.60 72 2.3 NNE
13:44 - 13/09 25.9 20.5 0 1020.60 72 2.4 ENE
13:29 - 13/09 25.8 20.1 0 1020.70 71 1.6 NE
13:14 - 13/09 25.9 20.5 0 1020.80 72 4.2 NE
12:59 - 13/09 25.9 20.5 0 1021.00 72 3.0 NE
12:44 - 13/09 25.6 20.4 0 1021.00 73 2.7 NE
12:29 - 13/09 25.4 20.4 0 1020.90 74 1.4 N
12:14 - 13/09 25.4 20.4 0 1021.00 74 1.4 ENE


   In caso di mancato funzionamento di qualche risorsa, vi preghiamo di segnalarcelo alla pagina Contatti.
© 2019 Osservatorio Meteo OMTeA
Sito di informazione su Meteo, Tempo in atto e Clima in Italia